createdAt,value
2019-03-16T00:00:03.069Z,11.27
2019-03-16T00:02:32.567Z,11.29
2019-03-16T00:05:01.984Z,11.29
2019-03-16T00:07:33.281Z,11.20
2019-03-16T00:10:02.601Z,11.25
2019-03-16T00:12:31.983Z,11.10
2019-03-16T00:15:01.456Z,11.13
2019-03-16T00:17:30.937Z,11.19
2019-03-16T00:20:00.416Z,11.09
2019-03-16T00:22:29.807Z,11.09
2019-03-16T00:24:59.402Z,11.10
2019-03-16T00:27:28.794Z,11.10
2019-03-16T00:29:58.234Z,11.13
2019-03-16T00:32:27.602Z,11.19
2019-03-16T00:34:57.340Z,11.14
2019-03-16T00:37:26.954Z,11.13
2019-03-16T00:39:56.395Z,11.13
2019-03-16T00:42:26.261Z,11.15
2019-03-16T00:44:55.751Z,11.06
2019-03-16T00:47:25.253Z,11.03
2019-03-16T00:49:54.640Z,10.96
2019-03-16T00:52:24.037Z,10.95
2019-03-16T00:54:53.447Z,11.04
2019-03-16T00:57:22.860Z,11.03
2019-03-16T00:59:53.054Z,11.05
2019-03-16T01:02:27.275Z,11.09
2019-03-16T01:04:53.621Z,11.03
2019-03-16T01:07:23.137Z,11.05
2019-03-16T01:09:52.576Z,11.06
2019-03-16T01:12:21.967Z,11.02
2019-03-16T01:14:51.358Z,11.12
2019-03-16T01:17:20.787Z,10.99
2019-03-16T01:19:50.188Z,10.98
2019-03-16T01:22:19.597Z,10.95
2019-03-16T01:24:49.064Z,10.93
2019-03-16T01:27:18.493Z,10.89
2019-03-16T01:29:48.003Z,10.88
2019-03-16T01:32:17.401Z,10.77
2019-03-16T01:34:46.817Z,10.77
2019-03-16T01:37:16.241Z,10.81
2019-03-16T01:39:45.774Z,10.84
2019-03-16T01:42:15.276Z,10.71
2019-03-16T01:44:44.742Z,10.71
2019-03-16T01:47:14.215Z,10.74
2019-03-16T01:49:43.754Z,10.71
2019-03-16T01:52:13.170Z,10.64
2019-03-16T01:54:42.567Z,10.64
2019-03-16T01:57:12.043Z,10.71
2019-03-16T01:59:41.457Z,10.71
2019-03-16T02:02:10.839Z,10.69
2019-03-16T02:04:40.337Z,10.73
2019-03-16T02:07:09.741Z,10.70
2019-03-16T02:09:39.129Z,10.71
2019-03-16T02:12:08.527Z,10.70
2019-03-16T02:14:37.946Z,10.73
2019-03-16T02:17:07.349Z,10.72
2019-03-16T02:19:36.902Z,10.75
2019-03-16T02:22:06.378Z,10.76
2019-03-16T02:24:35.850Z,10.76
2019-03-16T02:27:05.594Z,10.69
2019-03-16T02:29:35.118Z,10.69
2019-03-16T02:32:04.745Z,10.64
2019-03-16T02:34:34.343Z,10.73
2019-03-16T02:37:03.802Z,10.73
2019-03-16T02:39:33.608Z,10.69
2019-03-16T02:42:03.006Z,10.72
2019-03-16T02:44:32.415Z,10.75
2019-03-16T02:47:01.821Z,10.73
2019-03-16T02:49:31.413Z,10.73
2019-03-16T02:52:01.063Z,10.79
2019-03-16T02:54:30.628Z,10.77
2019-03-16T02:57:00.187Z,10.75
2019-03-16T02:59:29.585Z,10.78
2019-03-16T03:01:59.084Z,10.89
2019-03-16T03:04:28.652Z,10.92
2019-03-16T03:06:58.108Z,10.95
2019-03-16T03:09:27.544Z,10.90
2019-03-16T03:11:56.964Z,10.90
2019-03-16T03:14:26.789Z,10.41
2019-03-16T03:16:56.283Z,10.06
2019-03-16T03:19:25.690Z,9.74
2019-03-16T03:21:55.101Z,9.74
2019-03-16T03:24:24.566Z,9.48
2019-03-16T03:26:53.994Z,9.37
2019-03-16T03:29:23.394Z,9.37
2019-03-16T03:31:52.902Z,9.05
2019-03-16T03:34:22.326Z,9.11
2019-03-16T03:36:51.690Z,9.11
2019-03-16T03:39:21.264Z,8.99
2019-03-16T03:41:50.725Z,8.99
2019-03-16T03:44:20.137Z,8.74
2019-03-16T03:46:49.510Z,8.71
2019-03-16T03:49:18.879Z,8.71
2019-03-16T03:51:48.304Z,8.80
2019-03-16T03:54:17.684Z,8.49
2019-03-16T03:56:47.190Z,8.76
2019-03-16T03:59:16.587Z,8.56
2019-03-16T04:01:46.198Z,8.50
2019-03-16T04:04:16.289Z,8.33
2019-03-16T04:06:45.921Z,8.22
2019-03-16T04:09:15.354Z,8.34
2019-03-16T04:11:44.735Z,8.07
2019-03-16T04:14:14.199Z,7.88
2019-03-16T04:16:43.722Z,8.05
2019-03-16T04:19:13.100Z,8.10
2019-03-16T04:21:42.627Z,7.94
2019-03-16T04:24:12.034Z,8.01
2019-03-16T04:26:41.426Z,7.99
2019-03-16T04:29:10.844Z,7.86
2019-03-16T04:31:40.200Z,8.03
2019-03-16T04:34:09.775Z,8.06
2019-03-16T04:36:39.137Z,7.90
2019-03-16T04:39:08.688Z,7.88
2019-03-16T04:41:38.081Z,7.87
2019-03-16T04:44:07.473Z,7.91
2019-03-16T04:46:36.966Z,8.01
2019-03-16T04:49:06.375Z,7.96
2019-03-16T04:51:35.742Z,7.86
2019-03-16T04:54:05.147Z,7.88
2019-03-16T04:56:34.586Z,7.92
2019-03-16T04:59:04.031Z,8.06
2019-03-16T05:01:33.470Z,8.08
2019-03-16T05:04:02.934Z,7.97
2019-03-16T05:06:32.440Z,7.97
2019-03-16T05:09:01.811Z,7.97
2019-03-16T05:11:31.212Z,8.03
2019-03-16T05:14:00.613Z,8.10
2019-03-16T05:16:30.085Z,8.15
2019-03-16T05:18:59.489Z,8.23
2019-03-16T05:21:28.860Z,8.10
2019-03-16T05:23:58.262Z,8.12
2019-03-16T05:26:27.649Z,8.15
2019-03-16T05:28:57.065Z,8.09
2019-03-16T05:31:26.470Z,8.25
2019-03-16T05:33:55.845Z,8.14
2019-03-16T05:36:25.243Z,8.03
2019-03-16T05:38:54.634Z,8.23
2019-03-16T05:41:24.049Z,8.36
2019-03-16T05:43:53.418Z,8.30
2019-03-16T05:46:22.788Z,8.26
2019-03-16T05:48:52.188Z,8.26
2019-03-16T05:51:21.571Z,8.22
2019-03-16T05:53:51.092Z,8.22
2019-03-16T05:56:20.467Z,8.33
2019-03-16T05:58:50.056Z,8.35
2019-03-16T06:01:19.477Z,8.17
2019-03-16T06:03:48.876Z,8.22
2019-03-16T06:06:18.290Z,8.24
2019-03-16T06:08:47.655Z,8.30
2019-03-16T06:11:17.026Z,8.12
2019-03-16T06:13:46.435Z,8.28
2019-03-16T06:16:15.804Z,8.28
2019-03-16T06:18:45.235Z,8.08
2019-03-16T06:21:14.736Z,8.12
2019-03-16T06:23:44.323Z,8.44
2019-03-16T06:26:13.865Z,8.48
2019-03-16T06:28:43.338Z,8.40
2019-03-16T06:31:12.709Z,8.59
2019-03-16T06:33:42.083Z,8.79
2019-03-16T06:36:13.022Z,8.79
2019-03-16T06:38:42.413Z,8.73
2019-03-16T06:41:11.853Z,8.73
2019-03-16T06:43:41.205Z,8.77
2019-03-16T06:46:10.617Z,8.83
2019-03-16T06:48:39.983Z,8.91
2019-03-16T06:51:09.356Z,8.91
2019-03-16T06:53:38.980Z,8.93
2019-03-16T06:56:08.450Z,8.93
2019-03-16T06:58:38.050Z,8.88
2019-03-16T07:01:07.634Z,8.78
2019-03-16T07:03:37.035Z,8.83
2019-03-16T07:06:06.421Z,8.83
2019-03-16T07:08:35.808Z,8.72
2019-03-16T07:11:05.172Z,8.72
2019-03-16T07:13:34.555Z,9.03
2019-03-16T07:16:03.955Z,9.00
2019-03-16T07:18:33.317Z,8.80
2019-03-16T07:21:02.770Z,9.06
2019-03-16T07:23:32.269Z,9.06
2019-03-16T07:26:14.215Z,9.08
2019-03-16T07:28:33.108Z,9.08
2019-03-16T07:31:02.525Z,9.13
2019-03-16T07:33:31.926Z,9.31
2019-03-16T07:36:01.304Z,9.56
2019-03-16T07:38:30.746Z,9.56
2019-03-16T07:41:00.970Z,9.73
2019-03-16T07:43:30.454Z,9.85
2019-03-16T07:45:59.880Z,10.00
2019-03-16T07:48:29.347Z,10.00
2019-03-16T07:50:58.818Z,10.06
2019-03-16T07:53:28.245Z,10.07
2019-03-16T07:55:57.630Z,10.07
2019-03-16T07:58:27.061Z,10.16
2019-03-16T08:00:56.437Z,10.16
2019-03-16T08:03:25.867Z,10.15
2019-03-16T08:05:55.248Z,10.14
2019-03-16T08:08:24.665Z,10.17
2019-03-16T08:10:54.045Z,10.30
2019-03-16T08:13:24.192Z,10.25
2019-03-16T08:15:53.598Z,10.28
2019-03-16T08:18:23.026Z,10.28
2019-03-16T08:20:53.995Z,10.23
2019-03-16T08:23:23.371Z,10.23
2019-03-16T08:25:53.234Z,10.34
2019-03-16T08:28:22.705Z,10.34
2019-03-16T08:30:52.290Z,10.26
2019-03-16T08:33:21.693Z,10.40
2019-03-16T08:35:51.077Z,10.36
2019-03-16T08:38:20.476Z,10.36
2019-03-16T08:40:49.933Z,10.42
2019-03-16T08:43:19.437Z,10.47
2019-03-16T08:45:48.802Z,10.47
2019-03-16T08:48:23.191Z,10.46
2019-03-16T08:50:49.470Z,10.46
2019-03-16T08:53:18.852Z,10.54
2019-03-16T08:55:48.260Z,10.54
2019-03-16T08:58:17.653Z,10.54
2019-03-16T09:00:47.154Z,10.54
2019-03-16T09:03:16.654Z,10.54
2019-03-16T09:05:46.061Z,10.52
2019-03-16T09:08:15.454Z,10.63
2019-03-16T09:10:44.987Z,10.63
2019-03-16T09:13:14.394Z,10.75
2019-03-16T09:15:43.781Z,10.74
2019-03-16T09:18:13.212Z,10.74
2019-03-16T09:20:42.642Z,10.70
2019-03-16T09:23:12.178Z,10.72
2019-03-16T09:25:41.595Z,10.79
2019-03-16T09:28:18.697Z,10.70
2019-03-16T09:30:42.329Z,10.71
2019-03-16T09:33:12.199Z,10.71
2019-03-16T09:35:41.610Z,10.64
2019-03-16T09:38:11.033Z,10.74
2019-03-16T09:40:40.443Z,10.75
2019-03-16T09:43:09.820Z,10.74
2019-03-16T09:45:39.286Z,10.73
2019-03-16T09:48:08.963Z,10.73
2019-03-16T09:50:38.360Z,10.77
2019-03-16T09:53:07.749Z,10.82
2019-03-16T09:55:37.361Z,10.84
2019-03-16T09:58:06.733Z,10.81
2019-03-16T10:00:36.208Z,10.62
2019-03-16T10:03:05.609Z,10.62
2019-03-16T10:05:34.998Z,10.69
2019-03-16T10:08:04.544Z,10.71
2019-03-16T10:10:33.919Z,10.70
2019-03-16T10:13:03.414Z,10.75
2019-03-16T10:15:32.795Z,10.70
2019-03-16T10:18:02.229Z,10.72
2019-03-16T10:20:31.633Z,10.76
2019-03-16T10:23:01.013Z,10.72
2019-03-16T10:25:30.470Z,10.69
2019-03-16T10:27:59.950Z,10.69
2019-03-16T10:30:29.360Z,10.64
2019-03-16T10:32:58.771Z,10.77
2019-03-16T10:35:28.199Z,10.54
2019-03-16T10:37:57.729Z,10.60
2019-03-16T10:40:27.239Z,10.58
2019-03-16T10:42:56.682Z,10.41
2019-03-16T10:45:26.050Z,10.41
2019-03-16T10:47:55.552Z,10.42
2019-03-16T10:50:25.025Z,10.25
2019-03-16T10:52:54.422Z,10.21
2019-03-16T10:55:23.822Z,10.21
2019-03-16T10:57:53.225Z,10.49
2019-03-16T11:00:22.729Z,10.49
2019-03-16T11:02:52.121Z,10.58
2019-03-16T11:05:21.531Z,10.73
2019-03-16T11:07:51.021Z,10.73
2019-03-16T11:10:20.480Z,10.84
2019-03-16T11:12:49.873Z,10.93
2019-03-16T11:15:19.244Z,10.98
2019-03-16T11:17:48.649Z,11.00
2019-03-16T11:20:18.040Z,11.09
2019-03-16T11:22:47.541Z,11.01
2019-03-16T11:25:17.048Z,11.11
2019-03-16T11:27:46.443Z,11.07
2019-03-16T11:30:16.250Z,11.03
2019-03-16T11:32:45.701Z,11.20
2019-03-16T11:35:15.092Z,11.44
2019-03-16T11:37:44.462Z,11.60
2019-03-16T11:40:14.836Z,11.55
2019-03-16T11:42:44.513Z,11.50
2019-03-16T11:45:16.870Z,11.59
2019-03-16T11:47:45.069Z,11.59
2019-03-16T11:50:14.479Z,11.49
2019-03-16T11:52:43.911Z,11.40
2019-03-16T11:55:13.550Z,11.27
2019-03-16T11:57:42.921Z,11.29
2019-03-16T12:00:12.324Z,11.28
2019-03-16T12:02:41.729Z,11.38
2019-03-16T12:05:11.123Z,11.36
2019-03-16T12:07:40.565Z,11.37
2019-03-16T12:10:10.485Z,11.44
2019-03-16T12:12:39.916Z,11.53
2019-03-16T12:15:09.535Z,11.70
2019-03-16T12:17:38.894Z,11.49
2019-03-16T12:20:09.400Z,11.43
2019-03-16T12:22:38.798Z,11.56
2019-03-16T12:25:08.296Z,11.47
2019-03-16T12:27:37.697Z,11.45
2019-03-16T12:30:07.343Z,11.32
2019-03-16T12:32:37.503Z,11.42
2019-03-16T12:35:08.199Z,11.44
2019-03-16T12:37:37.778Z,11.49
2019-03-16T12:40:07.788Z,11.69
2019-03-16T12:42:37.513Z,11.63
2019-03-16T12:45:10.208Z,11.64
2019-03-16T12:47:39.640Z,11.55
2019-03-16T12:50:09.339Z,11.55
2019-03-16T12:52:38.792Z,11.71
2019-03-16T12:55:08.981Z,11.84
2019-03-16T12:57:38.819Z,11.86
2019-03-16T13:00:10.441Z,12.14
2019-03-16T13:02:39.846Z,12.03
2019-03-16T13:05:09.532Z,12.06
2019-03-16T13:07:39.180Z,12.16
2019-03-16T13:10:10.506Z,12.03
2019-03-16T13:12:40.117Z,12.01
2019-03-16T13:15:09.548Z,12.24
2019-03-16T13:17:38.914Z,12.33
2019-03-16T13:20:09.624Z,12.46
2019-03-16T13:22:39.002Z,13.04
2019-03-16T13:25:09.498Z,13.21
2019-03-16T13:27:39.020Z,13.61
2019-03-16T13:30:09.339Z,13.24
2019-03-16T13:32:38.748Z,13.72
2019-03-16T13:35:08.362Z,14.21
2019-03-16T13:37:37.777Z,13.90
2019-03-16T13:40:07.982Z,13.67
2019-03-16T13:42:37.396Z,13.27
2019-03-16T13:45:07.535Z,13.07
2019-03-16T13:47:36.935Z,12.81
2019-03-16T13:50:07.464Z,12.88
2019-03-16T13:52:37.237Z,13.24
2019-03-16T13:55:07.100Z,13.19
2019-03-16T13:57:36.483Z,12.99
2019-03-16T14:00:12.142Z,13.05
2019-03-16T14:02:38.622Z,13.83
2019-03-16T14:05:08.041Z,15.15
2019-03-16T14:07:37.662Z,16.31
2019-03-16T14:10:09.535Z,16.55
2019-03-16T14:12:38.977Z,16.80
2019-03-16T14:15:08.846Z,15.81
2019-03-16T14:17:38.680Z,14.79
2019-03-16T14:20:10.109Z,14.12
2019-03-16T14:22:39.476Z,14.21
2019-03-16T14:25:09.001Z,13.85
2019-03-16T14:27:38.474Z,13.65
2019-03-16T14:30:09.174Z,13.62
2019-03-16T14:32:38.536Z,13.47
2019-03-16T14:35:08.480Z,13.52
2019-03-16T14:37:37.886Z,13.44
2019-03-16T14:40:07.806Z,13.09
2019-03-16T14:42:37.270Z,13.05
2019-03-16T14:45:07.531Z,13.29
2019-03-16T14:47:37.040Z,13.09
2019-03-16T14:50:08.677Z,13.42
2019-03-16T14:52:38.274Z,13.56
2019-03-16T14:55:07.665Z,13.58
2019-03-16T14:57:37.062Z,13.50
2019-03-16T15:00:07.361Z,13.27
2019-03-16T15:02:36.746Z,13.44
2019-03-16T15:05:06.521Z,13.37
2019-03-16T15:07:36.031Z,13.67
2019-03-16T15:10:05.893Z,13.63
2019-03-16T15:12:35.560Z,13.58
2019-03-16T15:15:06.010Z,13.56
2019-03-16T15:17:35.399Z,13.63
2019-03-16T15:20:05.122Z,13.47
2019-03-16T15:22:34.527Z,13.61
2019-03-16T15:25:03.946Z,13.81
2019-03-16T15:27:33.565Z,13.44
2019-03-16T15:30:03.062Z,13.34
2019-03-16T15:32:32.494Z,13.32
2019-03-16T15:35:01.891Z,13.20
2019-03-16T15:37:31.303Z,13.17
2019-03-16T15:40:00.889Z,13.16
2019-03-16T15:42:30.306Z,13.28
2019-03-16T15:44:59.708Z,13.08
2019-03-16T15:47:30.097Z,13.24
2019-03-16T15:49:59.630Z,13.24
2019-03-16T15:52:29.209Z,13.13
2019-03-16T15:54:58.623Z,13.17
2019-03-16T15:57:28.337Z,13.06
2019-03-16T15:59:57.749Z,13.02
2019-03-16T16:02:27.146Z,13.12
2019-03-16T16:04:56.595Z,12.99
2019-03-16T16:07:25.999Z,12.94
2019-03-16T16:09:55.536Z,12.81
2019-03-16T16:12:25.062Z,12.88
2019-03-16T16:14:54.447Z,12.84
2019-03-16T16:17:23.902Z,12.69
2019-03-16T16:19:53.374Z,12.93
2019-03-16T16:22:23.024Z,13.05
2019-03-16T16:24:52.455Z,13.16
2019-03-16T16:27:24.109Z,13.08
2019-03-16T16:29:53.388Z,12.90
2019-03-16T16:32:22.798Z,12.84
2019-03-16T16:34:52.321Z,12.73
2019-03-16T16:37:21.780Z,12.68
2019-03-16T16:39:51.221Z,12.63
2019-03-16T16:42:20.601Z,12.73
2019-03-16T16:44:50.011Z,12.61
2019-03-16T16:47:19.457Z,12.51
2019-03-16T16:49:49.003Z,12.48
2019-03-16T16:52:18.396Z,12.45
2019-03-16T16:54:48.176Z,12.32
2019-03-16T16:57:17.691Z,12.21
2019-03-16T16:59:47.274Z,12.12
2019-03-16T17:02:16.820Z,12.11
2019-03-16T17:04:46.359Z,12.31
2019-03-16T17:07:16.065Z,12.18
2019-03-16T17:09:45.443Z,12.20
2019-03-16T17:12:14.813Z,12.15
2019-03-16T17:14:44.234Z,12.20
2019-03-16T17:17:13.632Z,12.09
2019-03-16T17:19:43.142Z,11.99
2019-03-16T17:22:12.579Z,11.94
2019-03-16T17:24:42.066Z,12.00
2019-03-16T17:27:11.612Z,11.81
2019-03-16T17:29:41.019Z,11.84
2019-03-16T17:32:10.422Z,11.79
2019-03-16T17:34:41.266Z,11.80
2019-03-16T17:37:10.936Z,11.77
2019-03-16T17:39:40.415Z,11.72
2019-03-16T17:42:09.932Z,11.55
2019-03-16T17:44:39.439Z,11.48
2019-03-16T17:47:11.037Z,11.55
2019-03-16T17:49:40.443Z,11.52
2019-03-16T17:52:09.882Z,11.66
2019-03-16T17:54:39.254Z,11.50
2019-03-16T17:57:08.635Z,11.30
2019-03-16T17:59:38.041Z,11.41
2019-03-16T18:02:07.778Z,11.32
2019-03-16T18:04:37.195Z,11.21
2019-03-16T18:07:06.800Z,11.20
2019-03-16T18:09:36.252Z,11.14
2019-03-16T18:12:06.153Z,11.19
2019-03-16T18:14:35.743Z,11.21
2019-03-16T18:17:05.226Z,11.26
2019-03-16T18:19:34.802Z,11.21
2019-03-16T18:22:04.216Z,11.12
2019-03-16T18:24:33.637Z,11.10
2019-03-16T18:27:03.040Z,10.98
2019-03-16T18:29:32.490Z,10.91
2019-03-16T18:32:07.768Z,10.98
2019-03-16T18:34:32.983Z,10.93
2019-03-16T18:37:02.463Z,10.82
2019-03-16T18:39:31.891Z,10.70
2019-03-16T18:42:01.478Z,10.63
2019-03-16T18:44:30.984Z,10.58
2019-03-16T18:47:00.401Z,10.63
2019-03-16T18:49:29.875Z,10.47
2019-03-16T18:51:59.363Z,10.41
2019-03-16T18:54:28.753Z,10.26
2019-03-16T18:56:58.236Z,10.26
2019-03-16T18:59:27.677Z,10.24
2019-03-16T19:01:57.080Z,10.18
2019-03-16T19:04:26.501Z,10.14
2019-03-16T19:06:55.987Z,10.10
2019-03-16T19:09:25.719Z,10.10
2019-03-16T19:11:55.192Z,10.07
2019-03-16T19:14:24.711Z,10.08
2019-03-16T19:16:54.163Z,10.02
2019-03-16T19:19:23.531Z,9.97
2019-03-16T19:21:52.964Z,10.06
2019-03-16T19:24:22.441Z,10.02
2019-03-16T19:26:51.837Z,9.97
2019-03-16T19:29:21.248Z,9.76
2019-03-16T19:31:50.642Z,9.64
2019-03-16T19:34:20.259Z,9.65
2019-03-16T19:36:49.590Z,9.72
2019-03-16T19:39:19.033Z,9.71
2019-03-16T19:41:48.451Z,9.66
2019-03-16T19:44:17.900Z,9.46
2019-03-16T19:46:47.312Z,9.46
2019-03-16T19:49:16.775Z,9.45
2019-03-16T19:51:46.414Z,9.45
2019-03-16T19:54:15.776Z,9.24
2019-03-16T19:56:45.308Z,9.08
2019-03-16T19:59:14.729Z,9.08
2019-03-16T20:01:44.287Z,9.11
2019-03-16T20:04:13.675Z,9.01
2019-03-16T20:06:43.148Z,9.02
2019-03-16T20:09:12.599Z,9.02
2019-03-16T20:11:42.199Z,9.04
2019-03-16T20:14:11.758Z,9.16
2019-03-16T20:16:41.277Z,9.16
2019-03-16T20:19:10.745Z,9.19
2019-03-16T20:21:40.316Z,9.18
2019-03-16T20:24:09.676Z,9.15
2019-03-16T20:26:39.200Z,9.05
2019-03-16T20:29:08.580Z,9.05
2019-03-16T20:31:46.973Z,9.03
2019-03-16T20:34:09.194Z,8.94
2019-03-16T20:36:38.717Z,8.89
2019-03-16T20:39:08.985Z,8.66
2019-03-16T20:41:38.632Z,8.66
2019-03-16T20:44:08.411Z,8.59
2019-03-16T20:46:37.866Z,8.52
2019-03-16T20:49:07.405Z,8.52
2019-03-16T20:51:36.847Z,8.46
2019-03-16T20:54:06.813Z,8.35
2019-03-16T20:56:36.220Z,8.20
2019-03-16T20:59:05.623Z,8.16
2019-03-16T21:01:35.239Z,8.18
2019-03-16T21:04:05.194Z,8.15
2019-03-16T21:06:34.600Z,8.17
2019-03-16T21:09:06.021Z,8.19
2019-03-16T21:11:35.466Z,8.18
2019-03-16T21:14:05.059Z,8.05
2019-03-16T21:16:34.449Z,8.09
2019-03-16T21:19:03.985Z,7.98
2019-03-16T21:21:33.419Z,7.96
2019-03-16T21:24:03.078Z,7.92
2019-03-16T21:26:32.519Z,7.89
2019-03-16T21:29:02.000Z,7.95
2019-03-16T21:31:31.383Z,7.96
2019-03-16T21:34:00.816Z,7.95
2019-03-16T21:36:41.050Z,7.90
2019-03-16T21:39:01.351Z,7.93
2019-03-16T21:41:30.775Z,7.71
2019-03-16T21:44:00.336Z,7.72
2019-03-16T21:46:29.747Z,7.70
2019-03-16T21:48:59.174Z,7.53
2019-03-16T21:51:28.578Z,7.47
2019-03-16T21:53:58.150Z,7.40
2019-03-16T21:56:27.582Z,7.34
2019-03-16T21:58:57.163Z,7.36
2019-03-16T22:01:26.703Z,7.28
2019-03-16T22:03:56.096Z,7.32
2019-03-16T22:06:25.499Z,7.30
2019-03-16T22:08:55.002Z,7.30
2019-03-16T22:11:24.425Z,7.25
2019-03-16T22:13:53.811Z,7.13
2019-03-16T22:16:23.201Z,7.08
2019-03-16T22:18:53.133Z,7.05
2019-03-16T22:21:22.510Z,6.92
2019-03-16T22:23:51.982Z,6.73
2019-03-16T22:26:21.423Z,6.79
2019-03-16T22:28:50.795Z,6.74
2019-03-16T22:31:20.261Z,6.75
2019-03-16T22:33:54.256Z,6.71
2019-03-16T22:36:20.771Z,6.74
2019-03-16T22:38:50.214Z,6.69
2019-03-16T22:41:19.720Z,6.73
2019-03-16T22:43:49.861Z,6.65
2019-03-16T22:46:19.358Z,6.56
2019-03-16T22:48:48.737Z,6.59
2019-03-16T22:51:18.106Z,6.51
2019-03-16T22:53:47.545Z,6.54
2019-03-16T22:56:17.155Z,6.51
2019-03-16T22:58:46.592Z,6.50
2019-03-16T23:01:16.132Z,6.44
2019-03-16T23:03:45.685Z,6.40
2019-03-16T23:06:15.260Z,6.24
2019-03-16T23:08:44.745Z,6.25
2019-03-16T23:11:14.152Z,6.30
2019-03-16T23:13:43.520Z,6.34
2019-03-16T23:16:12.944Z,6.31
2019-03-16T23:18:42.484Z,6.38
2019-03-16T23:21:12.004Z,6.37
2019-03-16T23:23:42.557Z,6.12
2019-03-16T23:26:12.115Z,6.03
2019-03-16T23:28:41.667Z,6.02
2019-03-16T23:31:12.505Z,6.11
2019-03-16T23:33:42.110Z,5.94
2019-03-16T23:36:11.653Z,5.87
2019-03-16T23:38:41.139Z,6.02
2019-03-16T23:41:10.521Z,6.03
2019-03-16T23:43:39.885Z,6.06
2019-03-16T23:46:09.631Z,6.20
2019-03-16T23:48:39.203Z,6.19
2019-03-16T23:51:08.588Z,6.22
2019-03-16T23:53:37.993Z,6.33
2019-03-16T23:56:07.756Z,6.19
2019-03-16T23:58:37.185Z,6.26
